Time;durP1;ratioP1;P1;durP2;ratioP2;P2;SDS_P1;SDS_P2;PMS_P1;PMS_P2;Temp;Humidity;BMP_temperature;BMP_pressure;BME280_temperature;BME280_humidity;BME280_pressure;Samples;Min_cycle;Max_cycle;Signal;HPM_P1;HPM_P2
2021/06/26 00:01:28;;;;;;;2.28;0.57;;;24.20;62.40;;;;;;4988794;28;20109;-33
2021/06/26 00:03:53;;;;;;;0.40;0.40;;;24.10;62.70;;;;;;4989748;28;20029;-31
2021/06/26 00:06:19;;;;;;;0.50;0.38;;;24.10;62.70;;;;;;4989143;28;20038;-32
2021/06/26 00:08:44;;;;;;;0.60;0.40;;;24.10;62.40;;;;;;4989005;28;20474;-32
2021/06/26 00:11:10;;;;;;;0.40;0.40;;;24.10;63.30;;;;;;4990963;28;20043;-35
2021/06/26 00:13:35;;;;;;;0.75;0.45;;;24.10;62.30;;;;;;4990580;28;20029;-30
2021/06/26 00:16:01;;;;;;;0.40;0.35;;;24.00;62.60;;;;;;4963829;28;20034;-32
2021/06/26 00:18:27;;;;;;;0.65;0.55;;;24.00;62.60;;;;;;4980651;28;20485;-31
2021/06/26 00:20:52;;;;;;;1.10;0.40;;;24.00;62.70;;;;;;5003598;28;20023;-36
2021/06/26 00:23:18;;;;;;;1.73;0.40;;;24.00;62.60;;;;;;4989735;28;20069;-32
2021/06/26 00:25:44;;;;;;;0.52;0.45;;;24.00;62.60;;;;;;4992795;28;20038;-30
2021/06/26 00:28:09;;;;;;;0.85;0.45;;;24.00;62.60;;;;;;4988746;28;20033;-39
2021/06/26 00:30:35;;;;;;;3.60;0.50;;;24.00;62.70;;;;;;4988557;28;20122;-30
2021/06/26 00:33:01;;;;;;;0.60;0.40;;;23.90;62.90;;;;;;4989690;28;20386;-33
2021/06/26 00:35:26;;;;;;;0.30;0.30;;;23.90;62.80;;;;;;4989386;28;20038;-32
2021/06/26 00:37:52;;;;;;;0.32;0.32;;;23.90;63.00;;;;;;4991623;28;20033;-30
2021/06/26 00:40:17;;;;;;;0.80;0.50;;;23.80;63.10;;;;;;4988356;28;20038;-32
2021/06/26 00:42:44;;;;;;;0.30;0.28;;;23.80;63.20;;;;;;4989435;28;20025;-31
2021/06/26 00:45:14;;;;;;;0.40;0.40;;;23.80;63.00;;;;;;4989245;28;20038;-32
2021/06/26 00:47:40;;;;;;;1.05;0.60;;;23.80;62.90;;;;;;4988955;28;20022;-32
2021/06/26 00:50:16;;;;;;;0.60;0.40;;;23.80;62.90;;;;;;4991022;28;20042;-31
2021/06/26 00:52:42;;;;;;;0.40;0.40;;;23.80;62.90;;;;;;4991927;28;20081;-32
2021/06/26 00:55:07;;;;;;;0.65;0.45;;;23.80;63.00;;;;;;4988072;28;20026;-32
2021/06/26 00:57:33;;;;;;;0.60;0.40;;;23.70;62.90;;;;;;4986981;28;20030;-34
2021/06/26 01:00:05;;;;;;;0.30;0.30;;;23.80;62.80;;;;;;5005883;28;20018;-33
2021/06/26 01:02:31;;;;;;;0.60;0.60;;;23.80;62.80;;;;;;4973680;28;20022;-33
2021/06/26 01:04:56;;;;;;;0.52;0.52;;;23.80;62.60;;;;;;4991788;28;20531;-30
2021/06/26 01:07:22;;;;;;;0.52;0.47;;;23.80;62.50;;;;;;4987243;28;20018;-29
2021/06/26 01:09:48;;;;;;;0.65;0.50;;;23.70;63.40;;;;;;4988232;28;20440;-33
2021/06/26 01:12:13;;;;;;;0.57;0.50;;;23.70;62.60;;;;;;4987847;28;20038;-36
2021/06/26 01:14:40;;;;;;;1.13;0.40;;;23.70;62.60;;;;;;4988417;28;20038;-34
2021/06/26 01:17:06;;;;;;;0.73;0.50;;;23.70;62.60;;;;;;4991427;28;20026;-34
2021/06/26 01:19:32;;;;;;;0.93;0.38;;;23.70;62.80;;;;;;4991459;28;20046;-32
2021/06/26 01:21:59;;;;;;;0.65;0.60;;;23.70;62.60;;;;;;4987623;28;20027;-31
2021/06/26 01:24:24;;;;;;;0.73;0.50;;;23.70;62.60;;;;;;4970597;28;20045;-31
2021/06/26 01:26:59;;;;;;;0.40;0.40;;;23.70;62.90;;;;;;4988168;28;20034;-32
2021/06/26 01:29:25;;;;;;;0.55;0.50;;;23.70;62.80;;;;;;4988246;28;20082;-35
2021/06/26 01:31:51;;;;;;;0.82;0.60;;;23.70;62.80;;;;;;5015384;28;20026;-29
2021/06/26 01:34:17;;;;;;;1.25;0.60;;;23.70;62.70;;;;;;4989262;28;20113;-31
2021/06/26 01:36:42;;;;;;;1.52;0.60;;;23.60;62.70;;;;;;4987362;28;20033;-31
2021/06/26 01:39:08;;;;;;;1.05;0.73;;;23.70;63.60;;;;;;4988395;28;20030;-31
2021/06/26 01:41:33;;;;;;;0.50;0.50;;;23.70;62.70;;;;;;4989055;28;20026;-33
2021/06/26 01:43:59;;;;;;;0.40;0.40;;;23.70;62.60;;;;;;5002999;28;20052;-31
2021/06/26 01:46:25;;;;;;;0.60;0.60;;;23.70;62.80;;;;;;4988681;28;20042;-35
2021/06/26 01:48:51;;;;;;;0.60;0.60;;;23.60;62.70;;;;;;4987814;28;20152;-34
2021/06/26 01:51:16;;;;;;;0.50;0.50;;;23.60;62.70;;;;;;4988066;28;20501;-32
2021/06/26 01:53:42;;;;;;;0.65;0.50;;;23.60;62.80;;;;;;4987704;28;20042;-30
2021/06/26 01:56:08;;;;;;;0.50;0.50;;;23.60;62.80;;;;;;4990321;28;20054;-32
2021/06/26 01:58:34;;;;;;;0.50;0.50;;;23.60;62.80;;;;;;5004433;28;20062;-31
2021/06/26 02:00:59;;;;;;;0.57;0.57;;;23.60;62.80;;;;;;4987203;28;20031;-32
2021/06/26 02:03:25;;;;;;;1.20;0.50;;;23.60;62.80;;;;;;4987204;28;20408;-32
2021/06/26 02:05:50;;;;;;;1.40;0.50;;;23.60;62.80;;;;;;4973882;28;20512;-32
2021/06/26 02:08:16;;;;;;;0.70;0.60;;;23.60;62.70;;;;;;4992794;28;20023;-31
2021/06/26 02:10:41;;;;;;;0.50;0.50;;;23.70;62.50;;;;;;4992821;28;20054;-31
2021/06/26 02:13:07;;;;;;;0.65;0.65;;;23.60;62.50;;;;;;4990603;28;20101;-30
2021/06/26 02:15:33;;;;;;;1.42;0.80;;;23.60;62.60;;;;;;4991095;28;20476;-30
2021/06/26 02:17:58;;;;;;;0.60;0.60;;;23.60;62.70;;;;;;4991212;28;20022;-29
2021/06/26 02:20:24;;;;;;;0.60;0.60;;;23.60;62.80;;;;;;4992005;28;20034;-30
2021/06/26 02:22:49;;;;;;;0.52;0.52;;;23.60;62.80;;;;;;4993826;28;20396;-36
2021/06/26 02:25:16;;;;;;;0.70;0.70;;;23.60;62.70;;;;;;4990867;28;20049;-28
2021/06/26 02:27:42;;;;;;;0.45;0.45;;;23.60;62.70;;;;;;4991689;28;20097;-30
2021/06/26 02:30:08;;;;;;;0.98;0.88;;;23.60;62.70;;;;;;4989358;28;20501;-35
2021/06/26 02:32:34;;;;;;;0.68;0.68;;;23.60;62.60;;;;;;4991886;28;20375;-29
2021/06/26 02:34:59;;;;;;;1.42;0.60;;;23.60;62.70;;;;;;4990881;28;20049;-35
2021/06/26 02:37:25;;;;;;;0.70;0.70;;;23.60;62.70;;;;;;4990380;28;20034;-29
2021/06/26 02:39:51;;;;;;;0.85;0.60;;;23.60;62.70;;;;;;5005336;28;20069;-30
2021/06/26 02:42:16;;;;;;;0.65;0.65;;;23.60;62.80;;;;;;4991614;28;20036;-30
2021/06/26 02:44:42;;;;;;;0.88;0.60;;;23.60;62.70;;;;;;4973872;28;20044;-30
2021/06/26 02:47:07;;;;;;;2.83;0.63;;;23.60;62.80;;;;;;4992990;28;20034;-31
2021/06/26 02:49:33;;;;;;;0.75;0.75;;;23.60;62.80;;;;;;4991699;28;20027;-31
2021/06/26 02:51:59;;;;;;;0.50;0.50;;;23.60;62.80;;;;;;4989939;28;20041;-32
2021/06/26 02:54:24;;;;;;;0.70;0.70;;;23.60;62.70;;;;;;4989680;28;20117;-29
2021/06/26 02:56:50;;;;;;;0.80;0.80;;;23.70;62.50;;;;;;4989562;28;20054;-31
2021/06/26 02:59:15;;;;;;;0.70;0.70;;;23.60;62.50;;;;;;4992323;28;20164;-29
2021/06/26 03:01:41;;;;;;;0.95;0.70;;;23.60;62.50;;;;;;4992047;28;20030;-30
2021/06/26 03:04:07;;;;;;;0.90;0.90;;;23.60;62.50;;;;;;4990730;28;20447;-31
2021/06/26 03:06:32;;;;;;;0.70;0.70;;;23.60;62.50;;;;;;4991218;28;20073;-32
2021/06/26 03:08:58;;;;;;;1.67;0.82;;;23.60;62.40;;;;;;4989735;28;20550;-35
2021/06/26 03:11:23;;;;;;;0.70;0.70;;;23.60;62.40;;;;;;4991563;28;20042;-31
2021/06/26 03:13:49;;;;;;;0.80;0.70;;;23.60;62.40;;;;;;4993181;28;20493;-33
2021/06/26 03:16:14;;;;;;;0.70;0.70;;;23.60;62.50;;;;;;4988279;28;20128;-28
2021/06/26 03:18:44;;;;;;;0.80;0.80;;;23.60;62.50;;;;;;4989324;28;20504;-34
2021/06/26 03:21:13;;;;;;;0.52;0.52;;;23.60;62.70;;;;;;4991558;28;20033;-34
2021/06/26 03:23:39;;;;;;;0.68;0.68;;;23.60;62.70;;;;;;4991652;28;20037;-34
2021/06/26 03:26:05;;;;;;;0.90;0.90;;;23.50;62.60;;;;;;5008000;28;20038;-45
2021/06/26 03:28:34;;;;;;;0.65;0.65;;;23.50;62.70;;;;;;4991496;28;20037;-31
2021/06/26 03:31:00;;;;;;;0.63;0.63;;;23.50;62.60;;;;;;4971479;28;20034;-29
2021/06/26 03:33:26;;;;;;;0.70;0.70;;;23.50;62.60;;;;;;4990103;28;20029;-30
2021/06/26 03:35:52;;;;;;;0.60;0.60;;;23.50;62.60;;;;;;4989852;28;20038;-31
2021/06/26 03:38:17;;;;;;;0.60;0.60;;;23.50;62.70;;;;;;4974120;28;20118;-30
2021/06/26 03:40:43;;;;;;;0.80;0.80;;;23.50;62.60;;;;;;4991006;28;20030;-31
2021/06/26 03:43:08;;;;;;;0.70;0.70;;;23.50;63.20;;;;;;4990647;28;20064;-33
2021/06/26 03:45:34;;;;;;;2.85;0.70;;;23.50;62.30;;;;;;4988535;28;20050;-37
2021/06/26 03:47:59;;;;;;;0.77;0.77;;;23.50;62.60;;;;;;4990073;28;20092;-36
2021/06/26 03:50:25;;;;;;;0.70;0.70;;;23.50;62.60;;;;;;4990138;28;20125;-32
2021/06/26 03:52:51;;;;;;;0.70;0.68;;;23.50;62.60;;;;;;4992437;28;20398;-33
2021/06/26 03:55:16;;;;;;;1.48;1.00;;;23.50;62.40;;;;;;4988861;28;20109;-31
2021/06/26 03:57:42;;;;;;;0.70;0.70;;;23.50;62.50;;;;;;4988833;28;20026;-33
2021/06/26 04:00:08;;;;;;;0.90;0.70;;;23.50;62.50;;;;;;4989926;28;20125;-35
2021/06/26 04:02:36;;;;;;;0.68;0.68;;;23.50;62.70;;;;;;4989467;28;20029;-51
2021/06/26 04:05:03;;;;;;;0.80;0.80;;;23.50;62.60;;;;;;4989147;28;20046;-32
2021/06/26 04:07:28;;;;;;;1.00;0.90;;;23.50;62.70;;;;;;4988443;28;20030;-31
2021/06/26 04:09:54;;;;;;;1.17;0.90;;;23.50;62.50;;;;;;4988644;28;20482;-34
2021/06/26 04:12:19;;;;;;;0.70;0.70;;;23.50;62.50;;;;;;4989097;28;20105;-29
2021/06/26 04:14:45;;;;;;;0.80;0.80;;;23.50;62.30;;;;;;5004091;28;20023;-31
2021/06/26 04:17:11;;;;;;;0.88;0.88;;;23.50;62.30;;;;;;4990922;28;20499;-34
2021/06/26 04:19:36;;;;;;;0.80;0.80;;;23.50;62.30;;;;;;4991671;28;20033;-33
2021/06/26 04:22:02;;;;;;;0.80;0.75;;;23.50;62.30;;;;;;4988857;28;20057;-30
2021/06/26 04:24:28;;;;;;;0.80;0.73;;;23.50;62.30;;;;;;4987645;28;20425;-32
2021/06/26 04:26:53;;;;;;;0.60;0.60;;;23.50;62.30;;;;;;4987030;28;20031;-29
2021/06/26 04:29:19;;;;;;;0.77;0.77;;;23.50;62.30;;;;;;4973094;28;20026;-33
2021/06/26 04:31:44;;;;;;;0.77;0.77;;;23.50;62.30;;;;;;4990617;28;20038;-30
2021/06/26 04:34:10;;;;;;;0.80;0.80;;;23.50;62.30;;;;;;4989258;28;20034;-32
2021/06/26 04:36:36;;;;;;;1.65;0.70;;;23.50;62.40;;;;;;4971903;28;20076;-29
2021/06/26 04:39:07;;;;;;;0.82;0.82;;;23.50;62.50;;;;;;4989559;28;20114;-30
2021/06/26 04:41:36;;;;;;;0.80;0.80;;;23.40;62.40;;;;;;4972975;28;20030;-32
2021/06/26 04:44:01;;;;;;;0.90;0.90;;;23.50;63.10;;;;;;4988245;28;20484;-29
2021/06/26 04:46:27;;;;;;;1.58;0.90;;;23.50;62.30;;;;;;4989604;28;20037;-28
2021/06/26 04:48:52;;;;;;;1.15;0.90;;;23.50;62.30;;;;;;4987813;28;20033;-32
2021/06/26 04:51:19;;;;;;;0.68;0.68;;;23.50;62.30;;;;;;4988209;28;20054;-30
2021/06/26 04:53:44;;;;;;;0.82;0.82;;;23.50;62.30;;;;;;4989084;28;20101;-30
2021/06/26 04:56:10;;;;;;;0.90;0.90;;;23.50;62.30;;;;;;4990922;28;20116;-31
2021/06/26 04:58:35;;;;;;;1.23;0.80;;;23.40;62.20;;;;;;4991335;28;20541;-29
2021/06/26 05:01:01;;;;;;;0.70;0.70;;;23.40;63.20;;;;;;4987779;28;20061;-29
2021/06/26 05:03:27;;;;;;;0.70;0.70;;;23.40;62.30;;;;;;4989819;28;20065;-31
2021/06/26 05:05:52;;;;;;;0.90;0.90;;;23.40;62.40;;;;;;4990435;28;20145;-28
2021/06/26 05:08:18;;;;;;;0.95;0.90;;;23.40;62.30;;;;;;4990458;28;20511;-30
2021/06/26 05:10:44;;;;;;;1.40;0.98;;;23.40;62.30;;;;;;4991226;28;20405;-32
2021/06/26 05:13:09;;;;;;;1.00;1.00;;;23.50;62.30;;;;;;4988143;28;20389;-35
2021/06/26 05:15:35;;;;;;;0.98;0.80;;;23.40;62.20;;;;;;4988504;28;20085;-31
2021/06/26 05:18:01;;;;;;;0.90;0.90;;;23.40;62.20;;;;;;4989182;28;20026;-28
2021/06/26 05:20:27;;;;;;;0.98;0.95;;;23.40;62.30;;;;;;4987874;28;20069;-32
2021/06/26 05:22:52;;;;;;;2.25;0.80;;;23.40;62.20;;;;;;4991706;28;20499;-33
2021/06/26 05:25:18;;;;;;;1.33;0.95;;;23.50;62.30;;;;;;4987279;28;20042;-33
2021/06/26 05:27:44;;;;;;;0.75;0.75;;;23.50;62.00;;;;;;4987805;28;20026;-30
2021/06/26 05:30:10;;;;;;;0.73;0.73;;;23.40;62.20;;;;;;4986793;28;20030;-32
2021/06/26 05:32:35;;;;;;;0.70;0.70;;;23.40;62.20;;;;;;4987494;28;20022;-33
2021/06/26 05:35:01;;;;;;;0.85;0.85;;;23.40;62.30;;;;;;4991779;28;20113;-32
2021/06/26 05:37:27;;;;;;;0.70;0.70;;;23.40;62.20;;;;;;4987416;28;20081;-34
2021/06/26 05:39:52;;;;;;;0.98;0.90;;;23.40;62.30;;;;;;4989500;28;20030;-29
2021/06/26 05:42:18;;;;;;;1.25;1.00;;;23.40;62.20;;;;;;4991150;28;20038;-31
2021/06/26 05:44:43;;;;;;;0.73;0.73;;;23.40;62.20;;;;;;4990545;28;20042;-31
2021/06/26 05:47:09;;;;;;;1.48;0.82;;;23.40;62.30;;;;;;4994008;28;20027;-34
2021/06/26 05:49:35;;;;;;;0.85;0.85;;;23.40;62.20;;;;;;4993717;28;20033;-35
2021/06/26 05:52:00;;;;;;;0.80;0.80;;;23.40;62.30;;;;;;4990921;28;20113;-30
2021/06/26 05:54:26;;;;;;;0.60;0.60;;;23.40;62.30;;;;;;4991104;28;20037;-38
2021/06/26 05:56:51;;;;;;;1.00;1.00;;;23.30;62.30;;;;;;4993121;28;20113;-30
2021/06/26 05:59:18;;;;;;;0.80;0.80;;;23.40;62.40;;;;;;4993187;28;20609;-33
2021/06/26 06:01:44;;;;;;;1.42;0.82;;;23.30;62.50;;;;;;4994521;28;20026;-35
2021/06/26 06:04:09;;;;;;;1.05;1.05;;;23.40;62.60;;;;;;4991841;28;20228;-32
2021/06/26 06:06:35;;;;;;;0.80;0.80;;;23.40;62.30;;;;;;4992015;28;20033;-34
2021/06/26 06:09:01;;;;;;;0.90;0.90;;;23.50;62.20;;;;;;4991683;28;20101;-37
2021/06/26 06:11:27;;;;;;;2.88;0.80;;;23.40;62.30;;;;;;4991804;28;20182;-33
2021/06/26 06:13:52;;;;;;;0.80;0.80;;;23.50;61.90;;;;;;4994734;28;20022;-29
2021/06/26 06:16:18;;;;;;;1.08;0.80;;;23.60;61.80;;;;;;4991275;28;20473;-35
2021/06/26 06:18:44;;;;;;;0.73;0.73;;;23.50;62.30;;;;;;4991312;28;20045;-33
2021/06/26 06:21:10;;;;;;;0.60;0.60;;;23.40;62.30;;;;;;4973970;28;20026;-37
2021/06/26 06:23:35;;;;;;;0.90;0.90;;;23.40;62.30;;;;;;4992308;28;20030;-31
2021/06/26 06:26:01;;;;;;;0.95;0.95;;;23.40;62.20;;;;;;4994540;28;20225;-32
2021/06/26 06:28:27;;;;;;;1.75;0.90;;;23.40;62.30;;;;;;4990818;28;20026;-33
2021/06/26 06:30:52;;;;;;;1.90;0.85;;;23.40;62.20;;;;;;4990825;28;20112;-30
2021/06/26 06:33:18;;;;;;;1.13;1.05;;;23.50;62.20;;;;;;4990917;28;20025;-33
2021/06/26 06:35:43;;;;;;;1.35;0.90;;;23.40;62.30;;;;;;4992532;28;20026;-29
2021/06/26 06:38:09;;;;;;;1.48;0.80;;;23.40;62.20;;;;;;4992605;28;20026;-31
2021/06/26 06:40:35;;;;;;;0.98;0.88;;;23.30;62.80;;;;;;4992061;28;20027;-37
2021/06/26 06:43:00;;;;;;;0.77;0.77;;;23.30;63.00;;;;;;4991300;28;20022;-35
2021/06/26 06:45:26;;;;;;;0.80;0.80;;;23.30;62.90;;;;;;4990124;28;20165;-33
2021/06/26 06:47:51;;;;;;;0.88;0.88;;;23.30;62.90;;;;;;4991786;28;20030;-31
2021/06/26 06:50:17;;;;;;;0.90;0.90;;;23.30;62.90;;;;;;4991521;28;20053;-37
2021/06/26 06:52:43;;;;;;;0.80;0.80;;;23.30;62.90;;;;;;4993891;28;20034;-34
2021/06/26 06:55:08;;;;;;;0.88;0.88;;;23.30;63.00;;;;;;4988766;28;20026;-30
2021/06/26 06:57:34;;;;;;;1.67;0.63;;;23.30;63.10;;;;;;4974342;28;20054;-35
2021/06/26 07:00:00;;;;;;;1.65;0.88;;;23.30;62.80;;;;;;4991592;28;20061;-33
2021/06/26 07:02:25;;;;;;;0.70;0.70;;;23.40;63.00;;;;;;4991834;28;20500;-36
2021/06/26 07:04:51;;;;;;;0.75;0.75;;;23.30;62.90;;;;;;4993726;28;20045;-38
2021/06/26 07:07:17;;;;;;;0.90;0.90;;;23.30;63.00;;;;;;4989823;28;20056;-31
2021/06/26 07:09:43;;;;;;;0.70;0.70;;;23.40;63.30;;;;;;4990097;28;20042;-32
2021/06/26 07:12:09;;;;;;;0.80;0.80;;;23.30;63.20;;;;;;4990028;28;20029;-34
2021/06/26 07:14:35;;;;;;;0.88;0.88;;;23.20;63.60;;;;;;4990724;28;20098;-31
2021/06/26 07:17:00;;;;;;;2.60;1.25;;;23.20;63.70;;;;;;4992580;28;20117;-36
2021/06/26 07:19:26;;;;;;;1.48;1.38;;;23.30;63.80;;;;;;4990671;28;20401;-36
2021/06/26 07:21:52;;;;;;;1.60;1.50;;;23.30;64.00;;;;;;4985917;28;20065;-36
2021/06/26 07:24:17;;;;;;;1.30;1.30;;;23.30;63.60;;;;;;4984992;28;20041;-35
2021/06/26 07:26:43;;;;;;;1.50;1.40;;;23.30;63.90;;;;;;4968022;28;20031;-35
2021/06/26 07:29:08;;;;;;;1.63;1.52;;;23.20;64.10;;;;;;4987816;28;20037;-33
2021/06/26 07:31:34;;;;;;;2.50;1.48;;;23.20;64.20;;;;;;4988800;28;20117;-32
2021/06/26 07:34:00;;;;;;;3.33;1.70;;;23.10;64.50;;;;;;4985382;28;20084;-35
2021/06/26 07:36:25;;;;;;;1.60;1.50;;;23.20;64.50;;;;;;4985760;28;20038;-30
2021/06/26 07:38:51;;;;;;;1.98;1.88;;;23.30;64.10;;;;;;4985142;28;20026;-32
2021/06/26 07:41:17;;;;;;;3.38;2.03;;;23.40;63.80;;;;;;4986919;28;20092;-32
2021/06/26 07:43:42;;;;;;;3.13;1.60;;;23.40;63.70;;;;;;4988726;28;20045;-34
2021/06/26 07:46:08;;;;;;;6.75;1.80;;;23.40;63.80;;;;;;4986650;28;20478;-33
2021/06/26 07:48:33;;;;;;;1.90;1.80;;;23.40;63.90;;;;;;4981237;28;20535;-39
2021/06/26 07:50:59;;;;;;;2.13;1.90;;;23.40;63.90;;;;;;4971259;28;20054;-37
2021/06/26 07:53:25;;;;;;;2.03;1.83;;;23.40;64.20;;;;;;4985123;28;20041;-38
2021/06/26 07:55:51;;;;;;;2.90;2.20;;;23.50;64.20;;;;;;4987204;28;20026;-36
2021/06/26 07:58:24;;;;;;;2.35;1.90;;;23.50;64.30;;;;;;4985252;28;20029;-38
2021/06/26 08:00:55;;;;;;;1.93;1.83;;;23.60;64.10;;;;;;4985157;28;20038;-39
2021/06/26 08:03:21;;;;;;;2.83;1.88;;;23.60;64.30;;;;;;4968527;28;20605;-36
2021/06/26 08:05:48;;;;;;;1.92;1.58;;;23.60;64.40;;;;;;4984149;28;20046;-39
2021/06/26 08:08:13;;;;;;;1.65;1.55;;;23.60;64.40;;;;;;4985860;28;20030;-36
2021/06/26 08:10:39;;;;;;;3.30;1.70;;;23.50;64.30;;;;;;4987430;28;20148;-41
2021/06/26 08:13:05;;;;;;;6.18;1.50;;;23.50;64.50;;;;;;4985132;28;20038;-42
2021/06/26 08:15:31;;;;;;;1.55;1.45;;;23.40;64.60;;;;;;4985442;28;20026;-38
2021/06/26 08:17:56;;;;;;;1.85;1.40;;;23.40;64.70;;;;;;4985570;28;20491;-39
2021/06/26 08:20:23;;;;;;;1.38;1.38;;;23.40;64.70;;;;;;4985382;28;20030;-40
2021/06/26 08:22:49;;;;;;;1.30;1.13;;;23.30;64.60;;;;;;4987566;28;20050;-36
2021/06/26 08:25:14;;;;;;;1.70;1.20;;;23.40;64.60;;;;;;4989518;28;20140;-41
2021/06/26 08:27:40;;;;;;;1.48;1.35;;;23.40;64.60;;;;;;4984825;28;20053;-40
2021/06/26 08:30:06;;;;;;;23.50;1.67;;;23.50;64.00;;;;;;4986923;28;20030;-39
2021/06/26 08:32:32;;;;;;;5.38;0.88;;;23.40;64.60;;;;;;4972301;28;20023;-38
2021/06/26 08:34:57;;;;;;;4.22;0.90;;;23.60;64.20;;;;;;4976878;28;20035;-33
2021/06/26 08:37:23;;;;;;;4.55;1.15;;;23.60;64.10;;;;;;4975884;28;20030;-38
2021/06/26 08:39:49;;;;;;;0.88;0.88;;;23.60;64.10;;;;;;4977864;28;20027;-36
2021/06/26 08:42:15;;;;;;;1.17;1.13;;;23.70;64.00;;;;;;4976696;28;20896;-36
2021/06/26 08:44:41;;;;;;;1.02;0.90;;;23.70;63.80;;;;;;4973175;28;20102;-36
2021/06/26 08:47:07;;;;;;;0.85;0.85;;;23.80;63.80;;;;;;4990425;28;20045;-36
2021/06/26 08:49:33;;;;;;;0.70;0.70;;;23.80;63.90;;;;;;4976512;28;20034;-38
2021/06/26 08:51:58;;;;;;;1.83;1.02;;;23.80;63.80;;;;;;4975728;28;20065;-34
2021/06/26 08:54:24;;;;;;;1.08;0.88;;;23.90;63.30;;;;;;4977557;28;20027;-39
2021/06/26 08:56:50;;;;;;;0.95;0.88;;;23.80;63.20;;;;;;4988649;28;20386;-37
2021/06/26 08:59:16;;;;;;;0.77;0.77;;;23.90;63.30;;;;;;5004197;28;20401;-36
2021/06/26 09:01:42;;;;;;;2.25;0.80;;;23.90;63.60;;;;;;4977103;28;20123;-37
2021/06/26 09:04:13;;;;;;;1.35;1.13;;;23.90;63.40;;;;;;4975658;28;20034;-37
2021/06/26 09:06:50;;;;;;;2.25;0.70;;;23.80;63.50;;;;;;4962859;28;20517;-38
2021/06/26 09:09:15;;;;;;;0.80;0.50;;;23.90;63.40;;;;;;4986260;28;20037;-33
2021/06/26 09:11:41;;;;;;;0.73;0.68;;;23.90;64.10;;;;;;4972306;28;20393;-38
2021/06/26 09:14:19;;;;;;;0.60;0.60;;;23.80;63.50;;;;;;4984830;28;20496;-35
2021/06/26 09:16:52;;;;;;;2.40;0.77;;;23.80;63.50;;;;;;4989235;28;20034;-37
2021/06/26 09:19:18;;;;;;;0.50;0.50;;;23.70;63.30;;;;;;4990253;28;20026;-39
2021/06/26 09:21:53;;;;;;;1.23;0.60;;;23.60;63.60;;;;;;4976654;28;20038;-43
2021/06/26 09:24:19;;;;;;;1.23;0.70;;;23.60;63.60;;;;;;4975635;28;20025;-39
2021/06/26 09:26:57;;;;;;;1.33;0.73;;;23.50;64.00;;;;;;4990112;28;20031;-37
2021/06/26 09:29:23;;;;;;;2.13;0.70;;;23.60;64.40;;;;;;4988816;28;20065;-37
2021/06/26 09:32:25;;;;;;;0.75;0.60;;;23.70;63.90;;;;;;4995627;28;20038;-38
2021/06/26 09:34:52;;;;;;;4.03;0.60;;;23.70;64.60;;;;;;4923895;29;20044;-34
2021/06/26 09:37:22;;;;;;;0.60;0.60;;;23.80;64.60;;;;;;4911555;29;20520;-40
2021/06/26 09:39:49;;;;;;;0.57;0.50;;;23.90;64.20;;;;;;4898182;29;20547;-39
2021/06/26 09:42:26;;;;;;;2.70;0.60;;;23.90;63.90;;;;;;4911746;29;20510;-42
2021/06/26 09:44:57;;;;;;;0.70;0.70;;;23.80;63.70;;;;;;4910423;29;20535;-41
2021/06/26 09:47:30;;;;;;;0.70;0.57;;;23.70;64.10;;;;;;4921171;29;20040;-42
2021/06/26 09:50:06;;;;;;;2.17;0.43;;;23.70;64.30;;;;;;4902320;29;20036;-39
2021/06/26 09:53:04;;;;;;;0.95;0.70;;;23.60;64.30;;;;;;4902270;29;20107;-39
2021/06/26 09:55:34;;;;;;;0.90;0.40;;;23.60;64.50;;;;;;4902174;29;20043;-35
2021/06/26 09:58:01;;;;;;;6.20;0.75;;;23.50;64.80;;;;;;4902316;29;20041;-34
2021/06/26 10:00:29;;;;;;;1.95;1.02;;;23.60;64.60;;;;;;4896505;29;20103;-40
2021/06/26 10:02:55;;;;;;;2.95;0.90;;;23.50;65.10;;;;;;4912565;29;20451;-39
2021/06/26 10:05:21;;;;;;;2.60;1.10;;;23.60;64.80;;;;;;4913148;29;20047;-37
2021/06/26 10:07:48;;;;;;;7.50;2.15;;;23.60;64.80;;;;;;4918074;29;20447;-45
2021/06/26 10:10:16;;;;;;;5.60;1.88;;;23.70;64.90;;;;;;4920534;28;20558;-34
2021/06/26 10:12:41;;;;;;;7.68;2.10;;;23.70;64.70;;;;;;4971834;28;20034;-40
2021/06/26 10:15:08;;;;;;;4.93;2.42;;;23.70;64.50;;;;;;4989194;28;20113;-40
2021/06/26 10:17:35;;;;;;;7.35;3.30;;;23.70;65.00;;;;;;4989448;28;20030;-41
2021/06/26 10:20:01;;;;;;;8.85;3.15;;;23.60;64.80;;;;;;4992294;28;20508;-36
2021/06/26 10:22:27;;;;;;;10.45;3.40;;;23.60;65.20;;;;;;4990040;28;20122;-39
2021/06/26 10:25:01;;;;;;;8.95;3.33;;;23.60;65.30;;;;;;4987044;28;20026;-40
2021/06/26 10:27:27;;;;;;;9.25;3.45;;;23.80;65.00;;;;;;4979205;28;20077;-39
2021/06/26 10:30:00;;;;;;;15.23;4.05;;;23.80;64.70;;;;;;4988773;28;20030;-38
2021/06/26 10:32:26;;;;;;;11.32;3.97;;;23.70;65.10;;;;;;5012456;28;20034;-35
2021/06/26 10:34:53;;;;;;;8.52;3.05;;;23.80;64.80;;;;;;4993848;28;20077;-38
2021/06/26 10:37:21;;;;;;;10.18;3.75;;;23.80;64.50;;;;;;4990623;28;20401;-33
2021/06/26 10:39:49;;;;;;;9.77;3.45;;;23.70;65.00;;;;;;4990526;28;20054;-36
2021/06/26 10:42:18;;;;;;;8.98;3.50;;;23.70;65.00;;;;;;4990498;28;20030;-37
2021/06/26 10:44:46;;;;;;;8.85;3.85;;;23.70;65.30;;;;;;5011885;28;20022;-36
2021/06/26 10:47:13;;;;;;;12.60;4.43;;;23.60;66.30;;;;;;4991789;28;20129;-36
2021/06/26 10:49:39;;;;;;;10.70;4.18;;;23.60;66.20;;;;;;5013608;28;20076;-36
2021/06/26 10:52:10;;;;;;;10.43;4.03;;;23.60;66.30;;;;;;4990238;28;20066;-37
2021/06/26 10:54:36;;;;;;;10.18;4.18;;;23.50;66.90;;;;;;4989506;28;20033;-41
2021/06/26 10:57:04;;;;;;;10.57;3.72;;;23.60;66.70;;;;;;4989453;28;20499;-38
2021/06/26 10:59:30;;;;;;;8.18;3.13;;;23.80;66.20;;;;;;4987165;28;20114;-38
2021/06/26 11:02:00;;;;;;;11.13;3.58;;;23.80;66.20;;;;;;5014765;28;20109;-35
2021/06/26 11:04:26;;;;;;;9.73;3.72;;;23.80;66.40;;;;;;4990176;28;20035;-37
2021/06/26 11:07:08;;;;;;;7.82;3.28;;;24.00;66.00;;;;;;4990519;28;20145;-34
2021/06/26 11:09:38;;;;;;;10.60;3.00;;;23.90;66.10;;;;;;4989657;28;20033;-37
2021/06/26 11:12:11;;;;;;;10.63;3.03;;;23.90;66.10;;;;;;4989893;28;20033;-37
2021/06/26 11:14:36;;;;;;;8.97;3.30;;;23.80;66.60;;;;;;4989123;28;20084;-38
2021/06/26 11:17:03;;;;;;;5.70;2.67;;;23.80;66.50;;;;;;4993381;28;20026;-40
2021/06/26 11:19:36;;;;;;;7.18;2.67;;;23.80;66.60;;;;;;4988287;28;20030;-37
2021/06/26 11:22:02;;;;;;;5.03;2.70;;;23.80;66.30;;;;;;4989671;28;20106;-32
2021/06/26 11:24:45;;;;;;;5.68;2.40;;;24.00;66.10;;;;;;4988544;28;20030;-37
2021/06/26 11:27:14;;;;;;;4.93;2.60;;;23.80;65.60;;;;;;4986725;28;20559;-36
2021/06/26 11:29:44;;;;;;;5.43;2.60;;;23.70;66.40;;;;;;4987079;28;20085;-40
2021/06/26 11:32:25;;;;;;;5.88;2.40;;;23.70;65.80;;;;;;4989702;28;20070;-40
2021/06/26 11:35:00;;;;;;;4.43;1.92;;;23.70;66.00;;;;;;4989974;28;20062;-42
2021/06/26 11:37:55;;;;;;;2.35;1.90;;;23.70;66.00;;;;;;4987734;28;20117;-39
2021/06/26 11:40:22;;;;;;;2.58;1.77;;;23.90;65.40;;;;;;4984989;28;20042;-40
2021/06/26 11:42:59;;;;;;;2.45;1.83;;;23.80;65.60;;;;;;4989650;28;20501;-38
2021/06/26 11:45:36;;;;;;;3.85;2.10;;;23.80;65.60;;;;;;4976129;28;20152;-38
2021/06/26 11:48:15;;;;;;;3.70;1.75;;;23.70;65.80;;;;;;4988211;28;20137;-41
2021/06/26 11:50:50;;;;;;;2.40;1.77;;;23.80;65.50;;;;;;4987422;28;20061;-40
2021/06/26 11:53:16;;;;;;;2.70;1.60;;;23.70;66.40;;;;;;4988481;28;20022;-38
2021/06/26 11:55:50;;;;;;;4.53;1.75;;;23.80;65.90;;;;;;4989120;28;20073;-38
2021/06/26 11:58:19;;;;;;;3.55;1.58;;;23.80;64.90;;;;;;4986603;28;20042;-41
2021/06/26 12:00:48;;;;;;;2.63;1.55;;;23.80;65.30;;;;;;4987384;28;20034;-38
2021/06/26 12:03:19;;;;;;;2.45;1.75;;;23.80;65.60;;;;;;4987321;28;20022;-32
2021/06/26 12:05:45;;;;;;;2.13;1.58;;;23.80;64.90;;;;;;4986784;28;20038;-35
2021/06/26 12:08:11;;;;;;;4.15;1.67;;;23.80;65.50;;;;;;4988929;28;20074;-39
2021/06/26 12:10:37;;;;;;;3.05;2.13;;;23.90;65.20;;;;;;4990305;28;20030;-38
2021/06/26 12:13:03;;;;;;;2.10;1.67;;;24.00;64.70;;;;;;4978604;28;20160;-42
2021/06/26 12:15:28;;;;;;;1.65;1.50;;;24.00;64.60;;;;;;4971934;28;20092;-39
2021/06/26 12:18:06;;;;;;;3.38;1.58;;;24.00;64.80;;;;;;4988429;28;20496;-39
2021/06/26 12:20:45;;;;;;;3.25;1.85;;;24.00;64.00;;;;;;4986508;28;20445;-37
2021/06/26 12:23:12;;;;;;;1.90;1.58;;;24.00;64.40;;;;;;4992012;28;20076;-41
2021/06/26 12:25:42;;;;;;;2.10;1.85;;;24.10;64.30;;;;;;4988694;28;20413;-37
2021/06/26 12:28:09;;;;;;;1.90;1.70;;;24.00;64.60;;;;;;4976479;28;20088;-41
2021/06/26 12:30:39;;;;;;;2.08;1.85;;;23.90;64.10;;;;;;4986946;28;20025;-39
2021/06/26 12:33:06;;;;;;;5.72;1.88;;;24.00;64.20;;;;;;4987271;28;20497;-42
2021/06/26 12:35:35;;;;;;;2.35;2.00;;;23.90;64.40;;;;;;4987030;28;20122;-41
2021/06/26 12:38:01;;;;;;;1.98;1.80;;;24.10;64.00;;;;;;4990917;28;20038;-36
2021/06/26 12:40:30;;;;;;;1.77;1.50;;;24.20;63.60;;;;;;4985821;28;20774;-36
2021/06/26 12:43:05;;;;;;;2.70;1.90;;;24.10;63.50;;;;;;4985893;28;20018;-35
2021/06/26 12:45:35;;;;;;;4.43;1.90;;;24.00;64.30;;;;;;4987086;28;20042;-36